Etusivu
METAR-TAF:

METAR-TAF

Lentoasemat :

Los Alamos, New Mexico, Yhdysvallat

Leveyspiiri: 35-53N, Pituuspiiri: 106-17W, korkeus merenpinnasta: 2179 m

Tämänhetkinen sää

Tämä raportti tehtiin 5 minuuttia sitten, kello 05.55 UTC
tyyntä
Lämpötila 8°C
Kosteus 31%
Ilmanpaine 1021 hPa
Näkyvyys: 16.1 km

METAR: KLAM 240555Z AUTO 00000KT 10SM 08/M08 A3014 RMK AO2 T00801077 10151 20080 401810080

Aika: 00:00 (06:00 UTC)


TAF: puuttuu

Säähavainnot ja -ennusteet yli 4000 lentoasemalta (METAR- ja TAF-raportit).

Käytössä olevat sääasemat on merkitty karttaan keltaisilla ja punaisilla pisteillä.

Aseta hiiri pisteen päälle nähdäksesi sääaseman nimen.

Klikkaa sitten nähdäksesi säähavainnot ja -ennusteet.

Kartan vaihtaminen: klikkaa mustalla rastilla varustettuja vihreitä pisteitä, niin voit zoomata sisään; viivalla varustettua vihreää pistettä, niin voit zoomata ulos tai vihreitä nuolia, niin pääset viereisille kartoille.


METAR-TAF: